WetterOnline ( https://www.wetteronline.de )

Wetter aktuell Leubsdorf

Aktuelles Wetter: Marienberg (640m)

6-stündlich | Neueste Meldungen
Ortszeit Temperatur Wetter
Sa, 18.05. 2:00 9.4° C bedeckt
Fr, 17.05. 20:00 10.3° C bewölkt
Fr, 17.05. 14:00 10.3° C Sprühregen
Fr, 17.05. 8:00 13.5° C bewölkt
Fr, 17.05. 2:00 12.1° C bewölkt
Do, 16.05. 20:00 14.6° C bewölkt
Do, 16.05. 14:00 15.6° C bedeckt
Do, 16.05. 8:00 12.4° C wolkig
Ortszeit Temperatur Wetter
Sa, 18.05. 5:00 8.9° C bedeckt
Sa, 18.05. 4:50 8.9° C bedeckt
Sa, 18.05. 4:40 8.9° C bedeckt
Sa, 18.05. 4:30 9.1° C bedeckt
Sa, 18.05. 4:20 9.1° C bedeckt
Sa, 18.05. 4:10 9.1° C bedeckt
Sa, 18.05. 4:00 9.1° C bedeckt
Sa, 18.05. 3:30 8.8° C wolkig
Sa, 18.05. 3:00 9.2° C bewölkt
Sa, 18.05. 2:30 9.3° C bedeckt
Sa, 18.05. 2:00 9.4° C bedeckt
Ortszeit Relative Feuchte Sichtweite
Sa, 18.05. 2:00 92% 55 km
Fr, 17.05. 20:00 89% >70 km
Fr, 17.05. 14:00 89% 26 km
Fr, 17.05. 8:00 58% 55 km
Fr, 17.05. 2:00 71% 60 km
Do, 16.05. 20:00 63% 50 km
Do, 16.05. 14:00 57% 45 km
Do, 16.05. 8:00 66% 55 km
Ortszeit Relative Feuchte Sichtweite
Sa, 18.05. 5:00 92% 60 km
Sa, 18.05. 4:50 92% -
Sa, 18.05. 4:40 92% -
Sa, 18.05. 4:30 89% >70 km
Sa, 18.05. 4:20 89% -
Sa, 18.05. 4:10 90% -
Sa, 18.05. 4:00 90% >70 km
Sa, 18.05. 3:30 93% 50 km
Sa, 18.05. 3:00 92% 60 km
Sa, 18.05. 2:30 94% 55 km
Sa, 18.05. 2:00 92% 55 km
Ortszeit Niederschlagsmenge Niederschlagsart
Sa, 18.05. 2:00 0.1 l/m2 in 6 Std. Regen
Fr, 17.05. 20:00 1 l/m2 in 12 Std. Regen
Fr, 17.05. 14:00 1 l/m2 in 6 Std. Regen
Fr, 17.05. 8:00 0.1 l/m2 in 12 Std. Regen
Fr, 17.05. 2:00 0.0 l/m2 in 6 Std. -
Do, 16.05. 20:00 0.2 l/m2 in 12 Std. Regen
Do, 16.05. 14:00 0.0 l/m2 in 6 Std. -
Do, 16.05. 8:00 0.0 l/m2 in 12 Std. -
Ortszeit Niederschlagsmenge Niederschlagsart
Sa, 18.05. 5:00 0.0 l/m2 in 1 Std. -
Sa, 18.05. 4:50 keine Meldung -
Sa, 18.05. 4:40 keine Meldung -
Sa, 18.05. 4:30 0.0 l/m2 in 30 Min -
Sa, 18.05. 4:20 keine Meldung -
Sa, 18.05. 4:10 keine Meldung -
Sa, 18.05. 4:00 0.0 l/m2 in 1 Std. -
Sa, 18.05. 3:30 0.0 l/m2 in 30 Min -
Sa, 18.05. 3:00 0.0 l/m2 in 1 Std. -
Sa, 18.05. 2:30 0.0 l/m2 in 30 Min -
Sa, 18.05. 2:00 <0.05 l/m2 in 1 Std. Regen
Ortszeit Stärke Spitze Richtung
km/h Bft. km/h Grad Sektor
Sa, 18.05. 2:00 2 1 28 160° S
Fr, 17.05. 20:00 14 3 47 120° SO
Fr, 17.05. 14:00 14 3 65 100° O
Fr, 17.05. 8:00 30 5 59 120° SO
Fr, 17.05. 2:00 22 4 47 120° SO
Do, 16.05. 20:00 22 4 61 120° SO
Do, 16.05. 14:00 26 4 61 110° O
Do, 16.05. 8:00 22 4 61 140° SO
Ortszeit Stärke Spitze Richtung
km/h Bft. km/h Grad Sektor
Sa, 18.05. 5:00 4 1 7 120° SO
Sa, 18.05. 4:50 4 1 - 120° SO
Sa, 18.05. 4:40 4 1 - 100° O
Sa, 18.05. 4:30 4 1 7 140° SO
Sa, 18.05. 4:20 4 1 - 140° SO
Sa, 18.05. 4:10 2 1 - 90° O
Sa, 18.05. 4:00 4 1 11 140° SO
Sa, 18.05. 3:30 6 1 11 130° SO
Sa, 18.05. 3:00 6 1 9 110° O
Sa, 18.05. 2:30 4 1 7 120° SO
Sa, 18.05. 2:00 2 1 9 160° S
Ortszeit Untergrenze Bedeckung Gattung
total tief tief mittel hoch
Sa, 18.05. 2:00 1290 m 8/8 8/8 - - -
Fr, 17.05. 20:00 1800 m 7/8 7/8 - - -
Fr, 17.05. 14:00 330 m 7/8 7/8 - - -
Fr, 17.05. 8:00 1260 m 7/8 7/8 - - -
Fr, 17.05. 2:00 5100 m 7/8 7/8 - - -
Do, 16.05. 20:00 990 m 8/8 6/8 - - -
Do, 16.05. 14:00 2400 m 8/8 8/8 - - -
Do, 16.05. 8:00 7500 m 8/8 0/8 - - -
Ortszeit Bedeckungsgrad in Achtel und Wolkenuntergrenze
Sa, 18.05. 5:00 3(600m) 7(1170m) 8(1470m)
Sa, 18.05. 4:50 3(600m) 7(1170m) 8(1470m)
Sa, 18.05. 4:40 8
Sa, 18.05. 4:30 8(1500m)
Sa, 18.05. 4:20 8(1500m)
Sa, 18.05. 4:10 8
Sa, 18.05. 4:00 8(1500m)
Sa, 18.05. 3:30 3(1500m) 6(2400m)
Sa, 18.05. 3:00 1(330m) 4(480m) 7(1470m)
Sa, 18.05. 2:30 3(390m) 6(660m) 8(1290m)
Sa, 18.05. 2:00 8(1290m)
Ortszeit Luftdruck NN (hPa) Tendenz (hPa in 3 Std.)
Sa, 18.05. 2:00 1010 - 0,2
Fr, 17.05. 20:00 1009 + 0,2
Fr, 17.05. 14:00 1009 + 0,5
Fr, 17.05. 8:00 1006 - 1,0
Fr, 17.05. 2:00 1008 - 0,9
Do, 16.05. 20:00 1008 - 0,7
Do, 16.05. 14:00 1008 + 0,9
Do, 16.05. 8:00 1008 - 0,8
Ortszeit Luftdruck NN (hPa) Tendenz (hPa in 3 Std.)
Sa, 18.05. 5:00 1009 - 0,4
Sa, 18.05. 4:50 1009 keine Meldung
Sa, 18.05. 4:40 1009 keine Meldung
Sa, 18.05. 4:30 1009 - 0,5
Sa, 18.05. 4:20 1009 keine Meldung
Sa, 18.05. 4:10 1009 keine Meldung
Sa, 18.05. 4:00 1009 - 0,6
Sa, 18.05. 3:30 1009 - 0,6
Sa, 18.05. 3:00 1009 - 0,5
Sa, 18.05. 2:30 1009 - 0,2
Sa, 18.05. 2:00 1010 - 0,2
Ortszeit Schneehöhe (cm)
Sa, 18.05. 2:00 0
Fr, 17.05. 20:00 0
Fr, 17.05. 14:00 0
Fr, 17.05. 8:00 0
Fr, 17.05. 2:00 0
Do, 16.05. 20:00 0
Do, 16.05. 14:00 0
Do, 16.05. 8:00 0
Ortszeit Schneehöhe (cm)
Sa, 18.05. 5:00 0
Sa, 18.05. 4:50 0
Sa, 18.05. 4:40 -
Sa, 18.05. 4:30 0
Sa, 18.05. 4:20 0
Sa, 18.05. 4:10 -
Sa, 18.05. 4:00 0
Sa, 18.05. 3:30 0
Sa, 18.05. 3:00 0
Sa, 18.05. 2:30 0
Sa, 18.05. 2:00 0
Link zu dieser Seite / Seite empfehlen

Das Wetter in ...